createdAt,value
2019-03-15T00:02:01.621Z,9.88
2019-03-15T00:04:32.406Z,9.88
2019-03-15T00:06:59.917Z,9.82
2019-03-15T00:09:27.343Z,9.76
2019-03-15T00:11:55.411Z,9.74
2019-03-15T00:14:23.217Z,9.71
2019-03-15T00:16:50.687Z,9.71
2019-03-15T00:19:18.181Z,9.70
2019-03-15T00:21:45.542Z,9.70
2019-03-15T00:24:12.923Z,9.72
2019-03-15T00:26:40.400Z,9.72
2019-03-15T00:29:08.089Z,9.74
2019-03-15T00:31:35.524Z,9.74
2019-03-15T00:34:03.386Z,9.75
2019-03-15T00:36:34.224Z,9.76
2019-03-15T00:39:02.112Z,9.77
2019-03-15T00:41:30.867Z,9.78
2019-03-15T00:43:58.378Z,9.80
2019-03-15T00:46:25.771Z,9.79
2019-03-15T00:48:53.156Z,9.79
2019-03-15T00:51:21.557Z,9.79
2019-03-15T00:53:49.061Z,9.78
2019-03-15T00:56:17.424Z,9.76
2019-03-15T00:58:44.914Z,9.75
2019-03-15T01:01:12.890Z,9.73
2019-03-15T01:03:40.554Z,9.72
2019-03-15T01:06:07.958Z,9.72
2019-03-15T01:08:35.455Z,9.71
2019-03-15T01:11:03.124Z,9.71
2019-03-15T01:13:31.181Z,9.71
2019-03-15T01:15:58.834Z,9.72
2019-03-15T01:18:26.259Z,9.72
2019-03-15T01:20:53.737Z,9.73
2019-03-15T01:23:21.142Z,9.72
2019-03-15T01:25:48.648Z,9.74
2019-03-15T01:28:16.073Z,9.75
2019-03-15T01:30:44.513Z,9.75
2019-03-15T01:33:11.894Z,9.74
2019-03-15T01:35:39.432Z,9.74
2019-03-15T01:38:06.905Z,9.75
2019-03-15T01:40:34.266Z,9.74
2019-03-15T01:43:01.628Z,9.72
2019-03-15T01:45:29.157Z,9.70
2019-03-15T01:47:56.566Z,9.72
2019-03-15T01:50:24.435Z,9.73
2019-03-15T01:52:54.804Z,9.73
2019-03-15T01:55:22.197Z,9.71
2019-03-15T01:57:49.565Z,9.68
2019-03-15T02:00:17.296Z,9.67
2019-03-15T02:02:44.723Z,9.67
2019-03-15T02:05:12.306Z,9.67
2019-03-15T02:07:39.966Z,9.67
2019-03-15T02:10:07.745Z,9.68
2019-03-15T02:12:35.221Z,9.69
2019-03-15T02:15:03.121Z,9.71
2019-03-15T02:17:31.127Z,9.70
2019-03-15T02:19:58.559Z,9.67
2019-03-15T02:22:26.291Z,9.69
2019-03-15T02:24:53.742Z,9.70
2019-03-15T02:27:21.258Z,9.71
2019-03-15T02:29:48.626Z,9.72
2019-03-15T02:32:15.983Z,9.71
2019-03-15T02:34:43.669Z,9.70
2019-03-15T02:37:11.128Z,9.71
2019-03-15T02:39:38.687Z,9.73
2019-03-15T02:42:06.394Z,9.73
2019-03-15T02:44:33.845Z,9.73
2019-03-15T02:47:01.291Z,9.74
2019-03-15T02:49:28.694Z,9.75
2019-03-15T02:51:56.336Z,9.75
2019-03-15T02:54:23.996Z,9.76
2019-03-15T02:56:52.788Z,9.78
2019-03-15T02:59:21.452Z,9.80
2019-03-15T03:01:49.990Z,9.80
2019-03-15T03:04:17.479Z,9.82
2019-03-15T03:06:44.858Z,9.84
2019-03-15T03:09:12.257Z,9.85
2019-03-15T03:11:39.664Z,9.88
2019-03-15T03:14:07.484Z,9.88
2019-03-15T03:16:34.970Z,9.90
2019-03-15T03:19:02.444Z,9.89
2019-03-15T03:21:30.226Z,9.85
2019-03-15T03:23:57.907Z,9.84
2019-03-15T03:26:25.565Z,9.85
2019-03-15T03:28:54.047Z,9.82
2019-03-15T03:31:22.018Z,9.81
2019-03-15T03:33:49.406Z,9.80
2019-03-15T03:36:16.971Z,9.79
2019-03-15T03:38:44.631Z,9.80
2019-03-15T03:41:12.293Z,9.81
2019-03-15T03:43:40.210Z,9.80
2019-03-15T03:46:07.888Z,9.81
2019-03-15T03:48:35.532Z,9.83
2019-03-15T03:51:03.318Z,9.87
2019-03-15T03:53:30.886Z,9.86
2019-03-15T03:55:59.164Z,9.89
2019-03-15T03:58:26.820Z,9.87
2019-03-15T04:00:54.438Z,9.88
2019-03-15T04:03:22.214Z,9.88
2019-03-15T04:05:50.209Z,9.90
2019-03-15T04:08:18.181Z,9.94
2019-03-15T04:10:45.671Z,9.94
2019-03-15T04:13:13.060Z,9.95
2019-03-15T04:15:40.475Z,9.95
2019-03-15T04:18:09.062Z,9.95
2019-03-15T04:20:36.615Z,9.93
2019-03-15T04:23:04.905Z,9.95
2019-03-15T04:25:33.165Z,9.95
2019-03-15T04:28:00.534Z,9.96
2019-03-15T04:30:29.216Z,9.95
2019-03-15T04:32:57.076Z,9.98
2019-03-15T04:35:24.433Z,10.00
2019-03-15T04:37:52.106Z,10.00
2019-03-15T04:40:19.480Z,9.99
2019-03-15T04:42:47.155Z,10.02
2019-03-15T04:45:14.516Z,10.04
2019-03-15T04:47:43.688Z,10.07
2019-03-15T04:50:11.336Z,10.09
2019-03-15T04:52:38.725Z,10.11
2019-03-15T04:55:06.505Z,10.12
2019-03-15T04:57:34.977Z,10.12
2019-03-15T05:00:03.331Z,10.12
2019-03-15T05:02:31.720Z,10.12
2019-03-15T05:05:00.285Z,10.11
2019-03-15T05:07:27.992Z,10.11
2019-03-15T05:09:55.353Z,10.12
2019-03-15T05:12:23.068Z,10.15
2019-03-15T05:14:50.655Z,10.18
2019-03-15T05:17:19.556Z,10.19
2019-03-15T05:19:47.935Z,10.21
2019-03-15T05:22:15.307Z,10.20
2019-03-15T05:24:43.955Z,10.20
2019-03-15T05:27:11.447Z,10.16
2019-03-15T05:29:40.137Z,10.15
2019-03-15T05:32:07.794Z,10.12
2019-03-15T05:34:35.378Z,10.11
2019-03-15T05:37:02.877Z,10.10
2019-03-15T05:39:30.251Z,10.08
2019-03-15T05:41:57.660Z,10.06
2019-03-15T05:44:25.121Z,10.05
2019-03-15T05:46:53.841Z,10.05
2019-03-15T05:49:21.478Z,10.04
2019-03-15T05:51:49.006Z,10.05
2019-03-15T05:54:16.529Z,10.05
2019-03-15T05:57:14.037Z,10.05
2019-03-15T05:59:47.095Z,10.06
2019-03-15T06:02:14.597Z,10.05
2019-03-15T06:04:42.224Z,10.05
2019-03-15T06:07:09.908Z,10.07
2019-03-15T06:09:37.313Z,10.08
2019-03-15T06:12:04.728Z,10.09
2019-03-15T06:14:32.370Z,10.10
2019-03-15T06:16:59.803Z,10.12
2019-03-15T06:19:27.450Z,10.14
2019-03-15T06:21:55.198Z,10.15
2019-03-15T06:24:22.832Z,10.15
2019-03-15T06:26:50.618Z,10.16
2019-03-15T06:29:18.301Z,10.17
2019-03-15T06:31:45.731Z,10.18
2019-03-15T06:34:13.050Z,10.18
2019-03-15T06:36:40.432Z,10.19
2019-03-15T06:39:08.465Z,10.18
2019-03-15T06:41:36.264Z,10.19
2019-03-15T06:44:04.018Z,10.20
2019-03-15T06:46:31.769Z,10.21
2019-03-15T06:48:59.177Z,10.23
2019-03-15T06:51:26.558Z,10.24
2019-03-15T06:53:54.123Z,10.27
2019-03-15T07:07:05.637Z,10.26
2019-03-15T07:09:33.099Z,10.27
2019-03-15T07:12:09.241Z,10.28
2019-03-15T07:14:29.785Z,10.30
2019-03-15T07:16:57.142Z,10.31
2019-03-15T07:19:27.653Z,10.34
2019-03-15T07:21:53.941Z,10.36
2019-03-15T07:24:25.491Z,10.37
2019-03-15T07:26:50.814Z,10.39
2019-03-15T07:29:19.064Z,10.42
2019-03-15T07:31:46.887Z,10.43
2019-03-15T07:34:14.347Z,10.45
2019-03-15T07:36:41.720Z,10.47
2019-03-15T07:39:09.101Z,10.48
2019-03-15T07:41:36.590Z,10.50
2019-03-15T07:44:04.326Z,10.50
2019-03-15T07:46:31.790Z,10.51
2019-03-15T07:48:59.525Z,10.56
2019-03-15T07:51:26.925Z,10.57
2019-03-15T07:53:54.688Z,10.60
2019-03-15T07:56:22.604Z,10.62
2019-03-15T07:58:50.367Z,10.65
2019-03-15T08:01:18.026Z,10.65
2019-03-15T08:03:45.466Z,10.65
2019-03-15T08:06:12.871Z,10.68
2019-03-15T08:08:40.667Z,10.72
2019-03-15T08:11:08.452Z,10.73
2019-03-15T08:13:35.990Z,10.74
2019-03-15T08:16:03.619Z,10.75
2019-03-15T08:18:31.544Z,10.77
2019-03-15T08:20:59.214Z,10.81
2019-03-15T08:23:27.689Z,10.84
2019-03-15T08:25:55.542Z,10.87
2019-03-15T08:28:23.024Z,10.90
2019-03-15T08:30:50.780Z,10.92
2019-03-15T08:33:18.522Z,10.96
2019-03-15T08:35:59.772Z,11.02
2019-03-15T08:38:27.483Z,11.04
2019-03-15T08:40:58.148Z,11.07
2019-03-15T08:43:25.607Z,11.10
2019-03-15T08:45:53.266Z,11.15
2019-03-15T08:48:27.035Z,11.19
2019-03-15T08:51:26.152Z,11.25
2019-03-15T08:53:53.847Z,11.29
2019-03-15T08:56:33.510Z,11.32
2019-03-15T08:59:01.174Z,11.37
2019-03-15T09:01:28.644Z,11.42
2019-03-15T09:03:56.098Z,11.46
2019-03-15T09:06:23.805Z,11.50
2019-03-15T09:08:51.273Z,11.54
2019-03-15T09:11:18.818Z,11.57
2019-03-15T09:13:49.209Z,11.62
2019-03-15T09:16:15.931Z,11.67
2019-03-15T09:18:43.638Z,11.71
2019-03-15T09:21:11.484Z,11.78
2019-03-15T09:23:39.179Z,11.85
2019-03-15T09:26:10.186Z,11.91
2019-03-15T09:28:37.885Z,11.99
2019-03-15T09:31:07.626Z,11.99
2019-03-15T09:33:35.893Z,12.09
2019-03-15T09:36:04.566Z,12.15
2019-03-15T09:38:32.213Z,12.19
2019-03-15T09:40:59.613Z,12.23
2019-03-15T09:43:27.993Z,12.26
2019-03-15T09:45:55.832Z,12.30
2019-03-15T09:48:23.286Z,12.34
2019-03-15T09:50:51.920Z,12.37
2019-03-15T09:53:19.643Z,12.39
2019-03-15T09:55:47.408Z,12.42
2019-03-15T09:58:14.927Z,12.46
2019-03-15T10:00:42.416Z,12.49
2019-03-15T10:03:21.477Z,12.52
2019-03-15T10:05:40.208Z,12.55
2019-03-15T10:08:07.596Z,12.60
2019-03-15T10:10:35.098Z,12.63
2019-03-15T10:13:06.118Z,12.66
2019-03-15T10:15:32.530Z,12.67
2019-03-15T10:18:00.242Z,12.69
2019-03-15T10:20:28.354Z,12.72
2019-03-15T10:23:05.902Z,12.73
2019-03-15T10:25:29.245Z,12.74
2019-03-15T10:27:57.330Z,12.77
2019-03-15T10:30:24.862Z,12.76
2019-03-15T10:32:52.451Z,12.79
2019-03-15T10:35:19.985Z,12.81
2019-03-15T10:37:47.604Z,12.84
2019-03-15T10:40:15.425Z,12.87
2019-03-15T10:42:42.826Z,12.90
2019-03-15T10:45:12.072Z,12.92
2019-03-15T10:47:42.423Z,12.94
2019-03-15T10:50:30.729Z,12.96
2019-03-15T10:52:58.266Z,13.00
2019-03-15T10:55:28.122Z,12.99
2019-03-15T10:57:55.656Z,13.02
2019-03-15T11:00:23.164Z,13.04
2019-03-15T11:02:50.759Z,13.08
2019-03-15T11:05:18.297Z,13.09
2019-03-15T11:07:45.853Z,13.12
2019-03-15T11:10:13.638Z,13.14
2019-03-15T11:12:41.709Z,13.15
2019-03-15T11:15:09.785Z,13.16
2019-03-15T11:17:37.233Z,13.18
2019-03-15T11:20:05.396Z,13.19
2019-03-15T11:22:33.185Z,13.21
2019-03-15T11:25:01.025Z,13.21
2019-03-15T11:27:29.135Z,13.22
2019-03-15T11:40:58.451Z,13.23
2019-03-15T11:43:26.137Z,13.25
2019-03-15T11:45:53.543Z,13.28
2019-03-15T11:48:20.939Z,13.30
2019-03-15T11:50:48.380Z,13.34
2019-03-15T11:53:18.776Z,13.40
2019-03-15T11:55:45.177Z,13.46
2019-03-15T11:58:12.769Z,13.52
2019-03-15T12:01:19.428Z,13.56
2019-03-15T12:03:53.087Z,13.63
2019-03-15T12:06:16.415Z,13.69
2019-03-15T12:08:43.944Z,13.73
2019-03-15T12:11:11.544Z,13.76
2019-03-15T12:13:39.261Z,13.80
2019-03-15T12:16:06.699Z,13.84
2019-03-15T12:18:34.376Z,13.88
2019-03-15T12:25:45.251Z,13.94
2019-03-15T12:28:12.683Z,13.96
2019-03-15T12:30:42.921Z,13.98
2019-03-15T12:33:10.529Z,14.01
2019-03-15T12:35:38.037Z,14.05
2019-03-15T12:38:05.674Z,14.08
2019-03-15T12:40:33.183Z,14.12
2019-03-15T12:43:00.668Z,14.15
2019-03-15T12:45:28.286Z,14.18
2019-03-15T12:47:56.068Z,14.22
2019-03-15T12:50:23.476Z,14.25
2019-03-15T12:52:51.051Z,14.29
2019-03-15T12:55:18.671Z,14.31
2019-03-15T12:57:49.044Z,14.33
2019-03-15T13:00:15.914Z,14.35
2019-03-15T13:02:43.754Z,14.38
2019-03-15T13:05:11.634Z,14.40
2019-03-15T13:07:39.381Z,14.40
2019-03-15T13:10:10.386Z,14.42
2019-03-15T13:12:38.355Z,14.44
2019-03-15T13:15:08.338Z,14.45
2019-03-15T13:17:35.845Z,14.45
2019-03-15T13:20:03.775Z,14.46
2019-03-15T13:22:31.451Z,14.46
2019-03-15T13:24:59.369Z,14.49
2019-03-15T13:27:27.010Z,14.50
2019-03-15T13:29:54.436Z,14.52
2019-03-15T13:32:22.036Z,14.54
2019-03-15T13:34:49.540Z,14.54
2019-03-15T13:37:17.129Z,14.58
2019-03-15T13:39:45.114Z,14.60
2019-03-15T13:42:12.641Z,14.62
2019-03-15T13:44:40.296Z,14.63
2019-03-15T13:47:07.715Z,14.67
2019-03-15T13:49:36.151Z,14.70
2019-03-15T13:52:04.017Z,14.73
2019-03-15T13:54:31.554Z,14.77
2019-03-15T13:56:59.247Z,14.78
2019-03-15T13:59:26.626Z,14.79
2019-03-15T14:01:54.029Z,14.82
2019-03-15T14:04:21.537Z,14.85
2019-03-15T14:06:48.957Z,14.86
2019-03-15T14:09:16.752Z,14.85
2019-03-15T14:11:44.278Z,14.87
2019-03-15T14:14:11.664Z,14.90
2019-03-15T14:16:39.090Z,14.93
2019-03-15T14:19:06.577Z,14.95
2019-03-15T14:21:33.957Z,14.95
2019-03-15T14:24:01.594Z,14.96
2019-03-15T14:26:29.252Z,14.96
2019-03-15T14:29:01.056Z,14.97
2019-03-15T14:31:28.684Z,14.99
2019-03-15T14:33:56.338Z,15.00
2019-03-15T14:36:23.748Z,15.01
2019-03-15T14:38:51.293Z,15.01
2019-03-15T14:41:18.886Z,15.04
2019-03-15T14:43:46.440Z,15.03
2019-03-15T14:46:13.919Z,15.05
2019-03-15T14:48:41.292Z,15.04
2019-03-15T14:51:08.909Z,15.04
2019-03-15T14:53:36.605Z,15.02
2019-03-15T14:56:04.146Z,15.02
2019-03-15T14:58:31.488Z,15.02
2019-03-15T15:00:59.854Z,15.01
2019-03-15T15:03:27.255Z,14.95
2019-03-15T15:05:54.651Z,14.91
2019-03-15T15:08:22.035Z,14.87
2019-03-15T15:10:49.526Z,14.83
2019-03-15T15:13:16.969Z,14.80
2019-03-15T15:15:44.450Z,14.77
2019-03-15T15:18:11.910Z,14.77
2019-03-15T15:20:39.371Z,14.75
2019-03-15T15:23:06.751Z,14.70
2019-03-15T15:25:34.122Z,14.67
2019-03-15T15:28:04.707Z,14.64
2019-03-15T15:30:30.991Z,14.60
2019-03-15T15:32:59.945Z,14.56
2019-03-15T15:35:27.404Z,14.53
2019-03-15T15:37:54.801Z,14.50
2019-03-15T15:40:22.288Z,14.50
2019-03-15T15:42:49.899Z,14.45
2019-03-15T15:45:18.180Z,14.42
2019-03-15T15:47:45.809Z,14.42
2019-03-15T15:50:13.636Z,14.40
2019-03-15T15:52:41.555Z,14.37
2019-03-15T15:55:09.403Z,14.36
2019-03-15T15:57:36.814Z,14.37
2019-03-15T16:00:05.552Z,14.37
2019-03-15T16:02:33.085Z,14.37
2019-03-15T16:05:00.966Z,14.33
2019-03-15T16:07:28.346Z,14.33
2019-03-15T16:09:55.859Z,14.31
2019-03-15T16:12:23.260Z,14.29
2019-03-15T16:14:50.720Z,14.30
2019-03-15T16:17:18.483Z,14.28
2019-03-15T16:19:45.871Z,14.28
2019-03-15T16:22:13.245Z,14.26
2019-03-15T16:24:40.651Z,14.27
2019-03-15T16:27:08.274Z,14.27
2019-03-15T16:29:36.048Z,14.27
2019-03-15T16:32:03.410Z,14.23
2019-03-15T16:34:30.904Z,14.26
2019-03-15T16:37:01.197Z,14.25
2019-03-15T16:39:28.894Z,14.21
2019-03-15T16:41:56.313Z,14.24
2019-03-15T16:44:23.819Z,14.25
2019-03-15T16:46:51.435Z,14.22
2019-03-15T16:49:19.194Z,14.20
2019-03-15T16:51:46.874Z,14.22
2019-03-15T16:54:14.964Z,14.23
2019-03-15T16:56:42.344Z,14.22
2019-03-15T16:59:10.107Z,14.24
2019-03-15T17:01:37.510Z,14.23
2019-03-15T17:04:05.057Z,14.21
2019-03-15T17:06:32.438Z,14.24
2019-03-15T17:08:59.942Z,14.24
2019-03-15T17:11:27.461Z,14.27
2019-03-15T17:13:54.884Z,14.30
2019-03-15T17:16:22.315Z,14.29
2019-03-15T17:18:49.689Z,14.29
2019-03-15T17:21:17.166Z,14.28
2019-03-15T17:23:44.573Z,14.28
2019-03-15T17:26:11.998Z,14.28
2019-03-15T17:28:39.406Z,14.29
2019-03-15T17:31:10.224Z,14.30
2019-03-15T17:33:36.162Z,14.30
2019-03-15T17:36:03.538Z,14.30
2019-03-15T17:38:30.918Z,14.29
2019-03-15T17:41:00.988Z,14.29
2019-03-15T17:43:28.622Z,14.29
2019-03-15T17:45:56.280Z,14.30
2019-03-15T17:48:23.953Z,14.30
2019-03-15T17:50:51.319Z,14.30
2019-03-15T17:53:18.910Z,14.31
2019-03-15T17:55:46.283Z,14.30
2019-03-15T17:58:14.030Z,14.31
2019-03-15T18:00:43.333Z,14.30
2019-03-15T18:03:20.838Z,14.29
2019-03-15T18:05:40.646Z,14.28
2019-03-15T18:08:08.365Z,14.27
2019-03-15T18:10:36.046Z,14.28
2019-03-15T18:13:04.020Z,14.29
2019-03-15T18:15:31.937Z,14.29
2019-03-15T18:18:00.093Z,14.27
2019-03-15T18:20:28.021Z,14.27
2019-03-15T18:22:55.595Z,14.28
2019-03-15T18:25:24.305Z,14.28
2019-03-15T18:27:52.216Z,14.26
2019-03-15T18:30:19.918Z,14.28
2019-03-15T18:32:47.440Z,14.26
2019-03-15T18:35:15.169Z,14.28
2019-03-15T18:37:42.679Z,14.29
2019-03-15T18:40:11.377Z,14.28
2019-03-15T18:42:40.032Z,14.26
2019-03-15T18:45:10.136Z,14.26
2019-03-15T18:47:37.692Z,14.26
2019-03-15T18:50:09.703Z,14.26
2019-03-15T18:52:37.467Z,14.27
2019-03-15T18:55:05.574Z,14.27
2019-03-15T18:57:33.081Z,14.27
2019-03-15T19:00:00.796Z,14.26
2019-03-15T19:02:28.193Z,14.27
2019-03-15T19:04:55.712Z,14.26
2019-03-15T19:07:23.085Z,14.26
2019-03-15T19:09:50.650Z,14.26
2019-03-15T19:12:18.318Z,14.28
2019-03-15T19:14:50.030Z,14.27
2019-03-15T19:17:17.657Z,14.28
2019-03-15T19:19:45.047Z,14.28
2019-03-15T19:22:12.446Z,14.29
2019-03-15T19:24:40.171Z,14.29
2019-03-15T19:27:07.888Z,14.29
2019-03-15T19:29:35.300Z,14.30
2019-03-15T19:32:02.782Z,14.31
2019-03-15T19:34:32.461Z,14.32
2019-03-15T19:37:02.798Z,14.32
2019-03-15T19:39:30.380Z,14.33
2019-03-15T19:41:57.749Z,14.32
2019-03-15T19:44:25.552Z,14.30
2019-03-15T19:46:53.937Z,14.30
2019-03-15T19:49:21.593Z,14.30
2019-03-15T19:51:50.657Z,14.29
2019-03-15T19:54:18.055Z,14.28
2019-03-15T19:56:45.554Z,14.29
2019-03-15T19:59:12.941Z,14.29
2019-03-15T20:01:40.452Z,14.28
2019-03-15T20:04:07.889Z,14.27
2019-03-15T20:06:35.291Z,14.25
2019-03-15T20:09:05.634Z,14.25
2019-03-15T20:11:33.149Z,14.25
2019-03-15T20:14:00.537Z,14.25
2019-03-15T20:16:27.932Z,14.24
2019-03-15T20:18:55.321Z,14.24
2019-03-15T20:21:22.782Z,14.25
2019-03-15T20:23:50.538Z,14.25
2019-03-15T20:26:18.022Z,14.26
2019-03-15T20:28:45.419Z,14.26
2019-03-15T20:31:12.813Z,14.26
2019-03-15T20:33:40.324Z,14.25
2019-03-15T20:36:08.348Z,14.27
2019-03-15T20:38:35.757Z,14.27
2019-03-15T20:41:03.242Z,14.26
2019-03-15T20:43:30.638Z,14.25
2019-03-15T20:45:58.033Z,14.26
2019-03-15T20:48:25.447Z,14.26
2019-03-15T20:50:53.429Z,14.28
2019-03-15T20:53:21.049Z,14.25
2019-03-15T20:55:48.700Z,14.26
2019-03-15T20:58:16.124Z,14.24
2019-03-15T21:00:43.549Z,14.21
2019-03-15T21:03:10.945Z,14.20
2019-03-15T21:05:38.488Z,14.21
2019-03-15T21:08:05.841Z,14.18
2019-03-15T21:10:33.372Z,14.14
2019-03-15T21:13:03.777Z,14.16
2019-03-15T21:15:31.199Z,14.14
2019-03-15T21:17:58.809Z,14.15
2019-03-15T21:20:26.647Z,14.16
2019-03-15T21:22:54.004Z,14.14
2019-03-15T21:25:21.574Z,14.13
2019-03-15T21:27:54.009Z,14.15
2019-03-15T21:30:18.800Z,14.15
2019-03-15T21:32:46.453Z,14.16
2019-03-15T21:35:14.053Z,14.14
2019-03-15T21:37:42.928Z,14.14
2019-03-15T21:40:10.767Z,14.16
2019-03-15T21:42:38.246Z,14.15
2019-03-15T21:45:06.232Z,14.14
2019-03-15T21:47:33.764Z,14.12
2019-03-15T21:50:01.276Z,14.12
2019-03-15T21:52:28.738Z,14.11
2019-03-15T21:54:56.122Z,14.11
2019-03-15T21:57:23.852Z,14.10
2019-03-15T21:59:51.372Z,14.08
2019-03-15T22:02:18.774Z,14.09
2019-03-15T22:04:46.248Z,14.07
2019-03-15T22:07:13.685Z,14.05
2019-03-15T22:09:41.114Z,14.02
2019-03-15T22:12:08.550Z,14.02
2019-03-15T22:14:36.086Z,13.99
2019-03-15T22:17:03.746Z,14.00
2019-03-15T22:19:31.119Z,13.99
2019-03-15T22:21:58.729Z,13.97
2019-03-15T22:24:26.589Z,13.95
2019-03-15T22:26:54.278Z,13.94
2019-03-15T22:29:22.271Z,13.93
2019-03-15T22:31:49.725Z,13.91
2019-03-15T22:34:18.012Z,13.87
2019-03-15T22:36:45.616Z,13.84
2019-03-15T22:39:13.253Z,13.82
2019-03-15T22:41:40.778Z,13.83
2019-03-15T22:44:08.858Z,13.83
2019-03-15T22:46:36.740Z,13.81
2019-03-15T22:49:05.758Z,13.83
2019-03-15T22:51:33.334Z,13.84
2019-03-15T22:54:01.035Z,13.85
2019-03-15T22:56:28.490Z,13.86
2019-03-15T22:58:56.039Z,13.87
2019-03-15T23:01:30.265Z,13.87
2019-03-15T23:03:53.545Z,13.86
2019-03-15T23:06:21.177Z,13.87
2019-03-15T23:08:48.664Z,13.89
2019-03-15T23:11:16.314Z,13.87
2019-03-15T23:13:43.883Z,13.86
2019-03-15T23:16:11.533Z,13.87
2019-03-15T23:18:40.001Z,13.86
2019-03-15T23:21:08.119Z,13.84
2019-03-15T23:23:36.420Z,13.83
2019-03-15T23:26:03.992Z,13.79
2019-03-15T23:28:31.893Z,13.79
2019-03-15T23:30:59.365Z,13.81
2019-03-15T23:33:27.012Z,13.82
2019-03-15T23:35:54.616Z,13.80
2019-03-15T23:38:22.088Z,13.80
2019-03-15T23:40:49.868Z,13.82
2019-03-15T23:43:17.635Z,13.81
2019-03-15T23:45:45.461Z,13.81
2019-03-15T23:48:13.206Z,13.80
2019-03-15T23:50:40.897Z,13.80
2019-03-15T23:53:08.491Z,13.77
2019-03-15T23:55:36.129Z,13.76
2019-03-15T23:58:03.630Z,13.76
